Latest METARs, TAFs and NOTAMs for SKCL


---------------------------------------------------------------------------
	(OBSERVATIONS)
SKCL 230000Z 08004KT 9999 VCSH SCT020 OVC090 20/18 A3002 REDZ
    R MK VCSH/N/S=
SKCL 222300Z 01012KT 9000 -DZ FEW003 BKN070 19/18 A2999=
SKCL 222200Z 04010KT 4000 RA SCT017 BKN090 20/19 A2998 RMK AD
    O PER IMC=
---------------------------------------------------------------------------
	(TERMINAL AREA FORECAST)
SKCL 222200Z 230024 VRB02KT 9999 SCT017 BKN080
    TEMPO 2300/2302 DZ
    TEMPO 2301/2305 VCSH SCT017CB
    TEMPO 2310/2313 7000 MIFG SCT015
    TEMPO 2319/2323 29007KT SCT017CB
    TX31/2318Z TN19/2311Z=
---------------------------------------------------------------------------
	(NOTAMS)


SKCL A2219/14 SEQUENCED FLG LGT RWY 01 U/S. 04 AUG 14:50 2014
    UNTIL 04 NOV 23:59 2014 ESTIMATED. CREATED: 04 AUG 14:55
    2014

SKCL A2324/14 MOV AREA WO VERTICAL SIGNALLING, EXER CTN. H24,
    15 AUG 21:30 2014 UNTIL 30 NOV 23:59 2014. CREATED: 15 AUG
    22:18 2014

SKCL A3153/14 RWY 01/19 TURNING BAY LTD, ACFT PROHIBITED PARALLEL
    OR ONE SURPASSES THE OTHER ACFT, EXER CTN. H24, 22 OCT 14:15
    2014 UNTIL 31 JAN 23:59 2015. CREATED: 22 OCT 14:17 2014

SKCL A3154/14 APRON, CARGO APRON AND DECONGESTION APRON WIP,
    EXER CTN. H24, 22 OCT 14:25 2014 UNTIL 31 JAN 23:59 2015.
    CREATED: 22 OCT 14:22 2014

SKCL A3155/14 TWY A,B,C,C1,C2,D,E,F,G WIP, EXER CTN. H24, 22
    OCT 14:30 2014 UNTIL 31 JAN 23:59 2015. CREATED: 22 OCT 14:26
    2014

SKCL A3156/14 RWY 01/19 WIP, EXER CTN. 0530-1030, 23 OCT 05:30
    2014 UNTIL 23 OCT 10:30 2014. CREATED: 22 OCT 14:50 2014

SKCL V0133/14 [DOD PROCEDURAL NOTAM] INSTRUMENT APPROACH PROCEDURE
    NOT AUTHORIZED DUE TO HOST UPDATE: ILS RWY 01 AMDT 1, VOR
    RWY 19 ORIG, ANKIN 5A, 5B DEP, BUN 6A DEP, BUN 6C DEP NA
    UFN. 17 OCT 00:44 2014 UNTIL 08 JAN 23:59 2015. CREATED:
    17 OCT 00:47 2014

---------------------------------------------------------------------------